Terminal Aerodrome Forecast
Issued by NWS Greer, SC

Home | Current Version | Previous Version | Text Only | Print | Product List | Glossary On
Versions: 1 2 3 4 5 6 7 8 9 10 11 12 13 14 15 16 17 18 19 20 21 22 23 24 25 26
000
FTUS42 KGSP 171700
TAFGSP
TAF
KGSP 171735Z 1718/1818 05006KT P6SM BKN025
     FM172100 04005KT P6SM BKN035
     FM180600 02004KT 5SM BR BKN015
     FM181000 02004KT 3SM BR BKN007
     FM181400 03005KT P6SM BKN020=

USA.gov is the U.S. government's official web portal to all federal, state and local government web resources and services.